Time,TemperatureF,DewpointF,PressureIn,WindDirection,WindDirectionDegrees,WindSpeedMPH,WindSpeedGustMPH,Humidity,HourlyPrecipIn,Conditions,Clouds,dailyrainin,SoftwareType,DateUTC
2013-05-21 00:00:00,70.6,67.8,29.67,East,99,1.0,1.0,91,0.00,,,0.02,Wunderground v.1.15,2013-05-21 05:00:00,
2013-05-21 00:14:00,70.2,67.4,29.68,East,99,0.0,1.0,91,0.00,,,0.00,Wunderground v.1.15,2013-05-21 05:14:00,
2013-05-21 00:20:00,70.1,67.3,29.68,East,99,1.0,1.0,91,0.00,,,0.00,Wunderground v.1.15,2013-05-21 05:20:00,
2013-05-21 00:34:00,69.9,67.2,29.67,East,99,0.0,0.0,91,0.00,,,0.00,Wunderground v.1.15,2013-05-21 05:34:00,
2013-05-21 00:40:00,69.8,67.4,29.67,East,99,0.0,0.0,92,0.00,,,0.00,Wunderground v.1.15,2013-05-21 05:40:00,
2013-05-21 00:54:00,69.7,67.3,29.67,East,99,0.0,0.0,92,0.00,,,0.00,Wunderground v.1.15,2013-05-21 05:54:00,
2013-05-21 01:00:00,69.7,67.3,29.67,East,99,0.0,0.0,92,0.00,,,0.00,Wunderground v.1.15,2013-05-21 06:00:00,
2013-05-21 01:14:00,69.5,66.8,29.67,East,101,0.0,1.0,91,0.00,,,0.00,Wunderground v.1.15,2013-05-21 06:14:00,
2013-05-21 01:20:00,69.6,66.5,29.66,East,101,1.0,1.0,90,0.00,,,0.00,Wunderground v.1.15,2013-05-21 06:20:00,
2013-05-21 01:34:00,70.3,65.9,29.66,SE,132,2.0,6.0,86,0.00,,,0.00,Wunderground v.1.15,2013-05-21 06:34:00,
2013-05-21 01:40:00,70.3,65.6,29.65,SE,134,2.0,6.0,85,0.00,,,0.00,Wunderground v.1.15,2013-05-21 06:40:00,
2013-05-21 01:54:00,69.9,64.8,29.66,SE,134,0.0,0.0,84,0.00,,,0.00,Wunderground v.1.15,2013-05-21 06:54:00,
2013-05-21 02:00:00,69.7,64.6,29.66,SE,134,0.0,2.0,84,0.00,,,0.00,Wunderground v.1.15,2013-05-21 07:00:00,
2013-05-21 02:14:00,69.2,64.2,29.67,SE,134,0.0,0.0,84,0.00,,,0.00,Wunderground v.1.15,2013-05-21 07:14:00,
2013-05-21 02:20:00,69.0,64.0,29.66,SE,134,0.0,0.0,84,0.00,,,0.00,Wunderground v.1.15,2013-05-21 07:20:00,
2013-05-21 02:34:00,68.4,63.0,29.67,SE,134,0.0,0.0,83,0.00,,,0.00,Wunderground v.1.15,2013-05-21 07:34:00,
2013-05-21 02:40:00,68.3,62.9,29.67,SE,134,0.0,0.0,83,0.00,,,0.00,Wunderground v.1.15,2013-05-21 07:40:00,
2013-05-21 02:54:00,68.3,62.6,29.66,SE,134,0.0,0.0,82,0.00,,,0.00,Wunderground v.1.15,2013-05-21 07:54:00,
2013-05-21 03:00:00,68.4,62.7,29.66,SE,135,0.0,0.0,82,0.00,,,0.00,Wunderground v.1.15,2013-05-21 08:00:00,
2013-05-21 03:14:00,68.2,62.5,29.67,SE,136,0.0,1.0,82,0.00,,,0.00,Wunderground v.1.15,2013-05-21 08:14:00,
2013-05-21 03:20:00,68.1,62.4,29.67,SE,138,1.0,3.0,82,0.00,,,0.00,Wunderground v.1.15,2013-05-21 08:20:00,
2013-05-21 03:34:00,68.2,62.1,29.67,SSE,150,2.0,2.0,81,0.00,,,0.00,Wunderground v.1.15,2013-05-21 08:34:00,
2013-05-21 03:40:00,68.3,61.9,29.68,SE,138,3.0,10.0,80,0.00,,,0.00,Wunderground v.1.15,2013-05-21 08:40:00,
2013-05-21 03:54:00,67.9,61.5,29.66,SSE,164,1.0,3.0,80,0.00,,,0.00,Wunderground v.1.15,2013-05-21 08:54:00,
2013-05-21 04:00:00,67.7,61.7,29.66,SSE,163,1.0,1.0,81,0.00,,,0.00,Wunderground v.1.15,2013-05-21 09:00:00,
2013-05-21 04:14:00,67.2,61.2,29.66,SSE,163,0.0,0.0,81,0.00,,,0.00,Wunderground v.1.15,2013-05-21 09:14:00,
2013-05-21 04:20:00,67.0,61.3,29.65,SSE,163,0.0,0.0,82,0.00,,,0.00,Wunderground v.1.15,2013-05-21 09:20:00,
2013-05-21 04:34:00,66.4,61.1,29.66,SSE,163,0.0,0.0,83,0.00,,,0.00,Wunderground v.1.15,2013-05-21 09:34:00,
2013-05-21 04:40:00,66.3,61.0,29.66,SSE,163,0.0,0.0,83,0.00,,,0.00,Wunderground v.1.15,2013-05-21 09:40:00,
2013-05-21 04:54:00,66.4,61.4,29.67,SSE,163,0.0,0.0,84,0.00,,,0.00,Wunderground v.1.15,2013-05-21 09:54:00,
2013-05-21 05:00:00,66.5,61.5,29.67,SSE,163,0.0,0.0,84,0.00,,,0.00,Wunderground v.1.15,2013-05-21 10:00:00,
2013-05-21 05:14:00,66.8,61.5,29.69,SSE,159,0.0,0.0,83,0.00,,,0.00,Wunderground v.1.15,2013-05-21 10:14:00,
2013-05-21 05:20:00,67.0,61.7,29.69,SSE,159,0.0,0.0,83,0.00,,,0.00,Wunderground v.1.15,2013-05-21 10:20:00,
2013-05-21 05:34:00,67.0,61.7,29.70,SSE,159,0.0,0.0,83,0.00,,,0.00,Wunderground v.1.15,2013-05-21 10:34:00,
2013-05-21 05:40:00,67.0,61.7,29.70,SSE,159,0.0,0.0,83,0.00,,,0.00,Wunderground v.1.15,2013-05-21 10:40:00,
2013-05-21 05:54:00,67.1,62.1,29.70,SSE,159,1.0,2.0,84,0.00,,,0.00,Wunderground v.1.15,2013-05-21 10:54:00,
2013-05-21 06:00:00,67.2,62.2,29.70,East,86,2.0,2.0,84,0.00,,,0.00,Wunderground v.1.15,2013-05-21 11:00:00,
2013-05-21 06:14:00,67.0,62.3,29.70,NE,38,3.0,3.0,85,0.00,,,0.00,Wunderground v.1.15,2013-05-21 11:14:00,
2013-05-21 06:20:00,66.8,62.1,29.70,NNE,21,3.0,4.0,85,0.00,,,0.00,Wunderground v.1.15,2013-05-21 11:20:00,
2013-05-21 06:34:00,66.3,62.0,29.70,NNE,13,4.0,4.0,86,0.00,,,0.00,Wunderground v.1.15,2013-05-21 11:34:00,
2013-05-21 06:40:00,66.2,61.9,29.70,NNE,13,4.0,4.0,86,0.00,,,0.00,Wunderground v.1.15,2013-05-21 11:40:00,
2013-05-21 06:54:00,65.9,61.9,29.70,North,10,4.0,4.0,87,0.00,,,0.00,Wunderground v.1.15,2013-05-21 11:54:00,
2013-05-21 07:00:00,65.7,62.0,29.70,North,360,4.0,6.0,88,0.00,,,0.00,Wunderground v.1.15,2013-05-21 12:00:00,
2013-05-21 07:14:00,65.4,61.8,29.71,NNE,18,3.0,3.0,88,0.00,,,0.00,Wunderground v.1.15,2013-05-21 12:14:00,
2013-05-21 07:20:00,65.1,61.1,29.71,NNE,24,3.0,9.0,87,0.00,,,0.00,Wunderground v.1.15,2013-05-21 12:20:00,
2013-05-21 07:34:00,64.7,59.8,29.73,ENE,59,1.0,2.0,84,0.00,,,0.00,Wunderground v.1.15,2013-05-21 12:34:00,
2013-05-21 07:40:00,64.8,59.2,29.73,ENE,78,2.0,4.0,82,0.00,,,0.00,Wunderground v.1.15,2013-05-21 12:40:00,
2013-05-21 07:54:00,65.0,58.7,29.75,ENE,75,0.0,2.0,80,0.00,,,0.00,Wunderground v.1.15,2013-05-21 12:54:00,
2013-05-21 08:00:00,65.1,58.8,29.77,ENE,75,1.0,1.0,80,0.00,,,0.00,Wunderground v.1.15,2013-05-21 13:00:00,
2013-05-21 08:14:00,64.8,59.2,29.77,ENE,74,1.0,1.0,82,0.07,,,0.02,Wunderground v.1.15,2013-05-21 13:14:00,
2013-05-21 08:20:00,64.5,59.6,29.73,SE,140,1.0,4.0,84,0.11,,,0.04,Wunderground v.1.15,2013-05-21 13:20:00,
2013-05-21 08:34:00,63.2,58.9,29.57,SSE,156,5.0,5.0,86,0.04,,,0.04,Wunderground v.1.15,2013-05-21 13:34:00,
2013-05-21 08:40:00,63.1,59.2,29.65,NNE,13,7.0,11.0,87,0.00,,,0.04,Wunderground v.1.15,2013-05-21 13:40:00,
2013-05-21 08:54:00,62.9,58.3,29.68,NE,34,8.0,12.0,85,0.00,,,0.04,Wunderground v.1.15,2013-05-21 13:54:00,
2013-05-21 09:00:00,62.8,57.9,29.68,NE,42,9.0,10.0,84,0.00,,,0.04,Wunderground v.1.15,2013-05-21 14:00:00,
2013-05-21 09:14:00,62.6,56.7,29.69,North,355,7.0,7.0,81,0.00,,,0.04,Wunderground v.1.15,2013-05-21 14:14:00,
2013-05-21 09:20:00,62.8,56.5,29.70,NNE,17,4.0,7.0,80,0.00,,,0.04,Wunderground v.1.15,2013-05-21 14:20:00,
2013-05-21 09:34:00,62.8,56.5,29.75,NNE,26,3.0,3.0,80,0.00,,,0.04,Wunderground v.1.15,2013-05-21 14:34:00,
2013-05-21 09:40:00,62.7,56.4,29.74,NNE,22,1.0,4.0,80,0.00,,,0.04,Wunderground v.1.15,2013-05-21 14:40:00,
2013-05-21 09:54:00,62.6,56.7,29.74,North,10,2.0,6.0,81,0.00,,,0.04,Wunderground v.1.15,2013-05-21 14:54:00,
2013-05-21 10:00:00,62.5,56.6,29.75,NNW,330,2.0,2.0,81,0.00,,,0.04,Wunderground v.1.15,2013-05-21 15:00:00,
2013-05-21 10:14:00,62.5,56.2,29.75,NNW,336,2.0,2.0,80,0.00,,,0.04,Wunderground v.1.15,2013-05-21 15:14:00,
2013-05-21 10:20:00,62.6,56.3,29.76,NNW,339,2.0,3.0,80,0.00,,,0.04,Wunderground v.1.15,2013-05-21 15:20:00,
2013-05-21 10:34:00,62.8,56.2,29.79,NNE,14,2.0,2.0,79,0.00,,,0.04,Wunderground v.1.15,2013-05-21 15:34:00,
2013-05-21 10:40:00,62.8,55.8,29.78,NNE,14,1.0,2.0,78,0.00,,,0.04,Wunderground v.1.15,2013-05-21 15:40:00,
2013-05-21 10:54:00,62.6,56.3,29.82,WNW,300,2.0,2.0,80,0.00,,,0.05,Wunderground v.1.15,2013-05-21 15:54:00,
2013-05-21 11:00:00,62.3,56.4,29.81,South,190,1.0,1.0,81,0.34,,,0.07,Wunderground v.1.15,2013-05-21 16:00:00,
2013-05-21 11:14:00,61.4,57.2,29.84,NW,307,1.0,5.0,86,0.12,,,0.11,Wunderground v.1.15,2013-05-21 16:14:00,
2013-05-21 11:20:00,61.0,57.1,29.83,NNW,329,2.0,5.0,87,0.21,,,0.14,Wunderground v.1.15,2013-05-21 16:20:00,
2013-05-21 11:34:00,60.3,57.0,29.78,NNW,348,0.0,0.0,89,0.11,,,0.18,Wunderground v.1.15,2013-05-21 16:34:00,
2013-05-21 11:40:00,60.2,56.9,29.82,NNW,346,0.0,0.0,89,0.06,,,0.18,Wunderground v.1.15,2013-05-21 16:40:00,
2013-05-21 11:54:00,60.2,57.3,29.77,NNW,346,0.0,0.0,90,0.17,,,0.21,Wunderground v.1.15,2013-05-21 16:54:00,
2013-05-21 12:00:00,60.0,57.1,29.70,NE,42,1.0,6.0,90,0.14,,,0.22,Wunderground v.1.15,2013-05-21 17:00:00,
2013-05-21 12:14:00,59.5,56.6,29.66,ENE,61,5.0,5.0,90,0.07,,,0.24,Wunderground v.1.15,2013-05-21 17:14:00,
2013-05-21 12:20:00,59.5,56.3,29.65,ENE,61,6.0,8.0,89,0.04,,,0.24,Wunderground v.1.15,2013-05-21 17:20:00,
2013-05-21 12:34:00,60.4,57.1,29.70,NNW,348,2.0,2.0,89,0.00,,,0.24,Wunderground v.1.15,2013-05-21 17:34:00,
2013-05-21 12:40:00,60.5,57.2,29.70,North,349,1.0,2.0,89,0.00,,,0.24,Wunderground v.1.15,2013-05-21 17:40:00,
2013-05-21 12:54:00,61.3,58.3,29.74,NNW,348,0.0,0.0,90,0.00,,,0.24,Wunderground v.1.15,2013-05-21 17:54:00,
2013-05-21 13:00:00,61.5,58.2,29.73,NNW,348,0.0,2.0,89,0.00,,,0.24,Wunderground v.1.15,2013-05-21 18:00:00,
2013-05-21 13:14:00,61.8,57.9,29.68,North,351,3.0,4.0,87,0.00,,,0.24,Wunderground v.1.15,2013-05-21 18:14:00,
2013-05-21 13:20:00,62.1,57.9,29.69,NNE,16,4.0,4.0,86,0.00,,,0.24,Wunderground v.1.15,2013-05-21 18:20:00,
2013-05-21 13:34:00,62.2,58.0,29.79,WNW,294,3.0,3.0,86,0.00,,,0.24,Wunderground v.1.15,2013-05-21 18:34:00,
2013-05-21 13:40:00,62.4,57.8,29.78,NW,309,4.0,7.0,85,0.00,,,0.24,Wunderground v.1.15,2013-05-21 18:40:00,
2013-05-21 13:54:00,61.9,58.0,29.83,NW,311,4.0,15.0,87,0.16,,,0.27,Wunderground v.1.15,2013-05-21 18:54:00,
2013-05-21 14:00:00,61.3,57.4,29.83,NW,304,5.0,5.0,87,0.10,,,0.28,Wunderground v.1.15,2013-05-21 19:00:00,
2013-05-21 14:14:00,60.2,57.3,29.83,West,276,5.0,5.0,90,0.26,,,0.32,Wunderground v.1.15,2013-05-21 19:14:00,
2013-05-21 14:20:00,59.8,57.2,29.83,WNW,298,6.0,7.0,91,0.32,,,0.35,Wunderground v.1.15,2013-05-21 19:20:00,
2013-05-21 14:34:00,59.3,56.7,29.80,NW,310,7.0,7.0,91,0.25,,,0.43,Wunderground v.1.15,2013-05-21 19:34:00,
2013-05-21 14:40:00,59.0,56.1,29.80,WNW,294,6.0,9.0,90,0.13,,,0.45,Wunderground v.1.15,2013-05-21 19:40:00,
2013-05-21 14:54:00,59.0,56.1,29.79,NW,319,0.0,1.0,90,0.07,,,0.46,Wunderground v.1.15,2013-05-21 19:54:00,
2013-05-21 15:00:00,59.1,56.2,29.78,NW,319,0.0,0.0,90,0.08,,,0.47,Wunderground v.1.15,2013-05-21 20:00:00,
2013-05-21 15:14:00,59.1,56.5,29.79,NW,319,0.0,0.0,91,0.13,,,0.50,Wunderground v.1.15,2013-05-21 20:14:00,
2013-05-21 15:20:00,59.0,56.4,29.75,SSE,152,1.0,4.0,91,0.14,,,0.51,Wunderground v.1.15,2013-05-21 20:20:00,
2013-05-21 15:34:00,59.0,56.7,29.71,SSE,164,6.0,6.0,92,0.10,,,0.53,Wunderground v.1.15,2013-05-21 20:34:00,
2013-05-21 15:40:00,58.8,56.5,29.68,SE,132,7.0,7.0,92,0.05,,,0.53,Wunderground v.1.15,2013-05-21 20:40:00,
2013-05-21 15:54:00,58.4,56.4,29.67,SE,135,6.0,6.0,93,0.04,,,0.54,Wunderground v.1.15,2013-05-21 20:54:00,
2013-05-21 16:00:00,58.3,56.0,29.65,SSE,150,7.0,7.0,92,0.00,,,0.54,Wunderground v.1.15,2013-05-21 21:00:00,
2013-05-21 16:14:00,58.3,56.0,29.58,ESE,115,5.0,7.0,92,0.00,,,0.54,Wunderground v.1.15,2013-05-21 21:14:00,
2013-05-21 16:20:00,58.6,56.3,29.57,ESE,121,6.0,7.0,92,0.00,,,0.54,Wunderground v.1.15,2013-05-21 21:20:00,
2013-05-21 16:34:00,59.0,56.7,29.66,NW,319,3.0,3.0,92,0.00,,,0.54,Wunderground v.1.15,2013-05-21 21:34:00,
2013-05-21 16:40:00,59.0,56.7,29.67,WNW,298,3.0,4.0,92,0.00,,,0.54,Wunderground v.1.15,2013-05-21 21:40:00,
2013-05-21 16:54:00,59.0,56.4,29.64,NNW,340,5.0,5.0,91,0.00,,,0.54,Wunderground v.1.15,2013-05-21 21:54:00,
2013-05-21 17:00:00,59.0,56.4,29.63,NNW,348,5.0,5.0,91,0.00,,,0.54,Wunderground v.1.15,2013-05-21 22:00:00,
2013-05-21 17:14:00,59.0,56.4,29.65,NNW,341,2.0,2.0,91,0.00,,,0.54,Wunderground v.1.15,2013-05-21 22:14:00,
2013-05-21 17:20:00,59.1,56.5,29.65,NNW,341,2.0,3.0,91,0.00,,,0.54,Wunderground v.1.15,2013-05-21 22:20:00,
2013-05-21 17:34:00,59.6,57.0,29.65,NNW,341,1.0,3.0,91,0.00,,,0.54,Wunderground v.1.15,2013-05-21 22:34:00,
2013-05-21 17:40:00,59.9,57.0,29.66,NNW,341,1.0,3.0,90,0.00,,,0.54,Wunderground v.1.15,2013-05-21 22:40:00,
2013-05-21 17:54:00,60.2,56.9,29.67,NNW,327,2.0,3.0,89,0.00,,,0.54,Wunderground v.1.15,2013-05-21 22:54:00,
2013-05-21 18:00:00,60.2,56.9,29.67,NW,311,2.0,2.0,89,0.00,,,0.54,Wunderground v.1.15,2013-05-21 23:00:00,
2013-05-21 18:14:00,60.2,56.9,29.67,NNW,327,1.0,2.0,89,0.00,,,0.54,Wunderground v.1.15,2013-05-21 23:14:00,
2013-05-21 18:20:00,60.1,56.8,29.67,NNW,342,2.0,5.0,89,0.00,,,0.54,Wunderground v.1.15,2013-05-21 23:20:00,
2013-05-21 18:34:00,60.1,57.2,29.67,NNW,327,2.0,2.0,90,0.00,,,0.54,Wunderground v.1.15,2013-05-21 23:34:00,
2013-05-21 18:40:00,60.2,57.3,29.68,WNW,284,2.0,2.0,90,0.00,,,0.54,Wunderground v.1.15,2013-05-21 23:40:00,
2013-05-21 18:54:00,60.4,57.5,29.68,WNW,299,2.0,3.0,90,0.00,,,0.54,Wunderground v.1.15,2013-05-21 23:54:00,
2013-05-21 19:00:00,60.5,57.2,29.67,NW,311,2.0,4.0,89,0.00,,,0.54,Wunderground v.1.15,2013-05-22 00:00:00,
2013-05-21 19:14:00,60.9,57.3,29.69,NW,306,2.0,4.0,88,0.00,,,0.54,Wunderground v.1.15,2013-05-22 00:14:00,
2013-05-21 19:20:00,61.3,57.7,29.69,WNW,300,1.0,4.0,88,0.00,,,0.54,Wunderground v.1.15,2013-05-22 00:20:00,
2013-05-21 19:34:00,61.8,57.9,29.70,WNW,301,0.0,0.0,87,0.00,,,0.54,Wunderground v.1.15,2013-05-22 00:34:00,
2013-05-21 19:40:00,62.1,58.2,29.70,WNW,301,0.0,1.0,87,0.00,,,0.54,Wunderground v.1.15,2013-05-22 00:40:00,
2013-05-21 19:54:00,62.2,58.0,29.70,West,272,0.0,0.0,86,0.00,,,0.54,Wunderground v.1.15,2013-05-22 00:54:00,
2013-05-21 20:00:00,62.2,58.0,29.70,West,272,0.0,0.0,86,0.00,,,0.54,Wunderground v.1.15,2013-05-22 01:00:00,
2013-05-21 20:14:00,62.0,57.8,29.72,West,273,0.0,0.0,86,0.00,,,0.54,Wunderground v.1.15,2013-05-22 01:14:00,
2013-05-21 20:20:00,61.8,57.6,29.72,West,273,0.0,0.0,86,0.00,,,0.54,Wunderground v.1.15,2013-05-22 01:20:00,
2013-05-21 20:34:00,61.4,57.5,29.73,West,276,0.0,0.0,87,0.00,,,0.54,Wunderground v.1.15,2013-05-22 01:34:00,
2013-05-21 20:40:00,61.4,57.5,29.73,West,276,0.0,2.0,87,0.00,,,0.54,Wunderground v.1.15,2013-05-22 01:40:00,
2013-05-21 20:54:00,61.4,57.8,29.73,West,273,0.0,0.0,88,0.00,,,0.54,Wunderground v.1.15,2013-05-22 01:54:00,
2013-05-21 21:00:00,61.4,57.8,29.73,SSW,196,0.0,0.0,88,0.00,,,0.54,Wunderground v.1.15,2013-05-22 02:00:00,
2013-05-21 21:14:00,61.3,58.0,29.74,SSW,196,0.0,0.0,89,0.00,,,0.54,Wunderground v.1.15,2013-05-22 02:14:00,
2013-05-21 21:20:00,61.1,57.8,29.74,SSW,196,0.0,0.0,89,0.00,,,0.54,Wunderground v.1.15,2013-05-22 02:20:00,
2013-05-21 21:34:00,60.8,57.5,29.74,SSW,192,0.0,0.0,89,0.00,,,0.54,Wunderground v.1.15,2013-05-22 02:34:00,
2013-05-21 21:40:00,60.6,57.3,29.75,WSW,257,0.0,0.0,89,0.00,,,0.54,Wunderground v.1.15,2013-05-22 02:40:00,
2013-05-21 21:54:00,60.3,57.4,29.75,WSW,249,0.0,0.0,90,0.00,,,0.54,Wunderground v.1.15,2013-05-22 02:54:00,
2013-05-21 22:00:00,60.2,57.3,29.75,WSW,249,0.0,2.0,90,0.00,,,0.54,Wunderground v.1.15,2013-05-22 03:00:00,
2013-05-21 22:14:00,59.9,57.3,29.75,WSW,249,0.0,0.0,91,0.00,,,0.54,Wunderground v.1.15,2013-05-22 03:14:00,
2013-05-21 22:20:00,59.9,57.3,29.75,WSW,249,0.0,0.0,91,0.00,,,0.54,Wunderground v.1.15,2013-05-22 03:20:00,
2013-05-21 22:34:00,59.8,57.5,29.75,WSW,249,0.0,0.0,92,0.00,,,0.54,Wunderground v.1.15,2013-05-22 03:34:00,
2013-05-21 22:40:00,59.8,57.5,29.75,WSW,249,0.0,0.0,92,0.00,,,0.54,Wunderground v.1.15,2013-05-22 03:40:00,
2013-05-21 22:54:00,59.6,57.3,29.75,WSW,249,0.0,0.0,92,0.00,,,0.54,Wunderground v.1.15,2013-05-22 03:54:00,
2013-05-21 23:00:00,59.5,57.2,29.75,WSW,249,0.0,0.0,92,0.00,,,0.54,Wunderground v.1.15,2013-05-22 04:00:00,
2013-05-21 23:02:00,59.4,57.1,29.75,WSW,249,0.0,0.0,92,0.00,,,0.54,Wunderground v.1.15,2013-05-22 04:02:00,
2013-05-21 23:14:00,59.0,56.7,29.75,WSW,249,0.0,0.0,92,0.00,,,0.54,Wunderground v.1.15,2013-05-22 04:14:00,
2013-05-21 23:16:00,59.0,56.7,29.75,WSW,249,0.0,0.0,92,0.00,,,0.54,Wunderground v.1.15,2013-05-22 04:16:00,
2013-05-21 23:20:00,59.0,56.7,29.75,WSW,249,0.0,0.0,92,0.00,,,0.54,Wunderground v.1.15,2013-05-22 04:20:00,
2013-05-21 23:34:00,58.9,56.9,29.75,WSW,249,0.0,0.0,93,0.00,,,0.54,Wunderground v.1.15,2013-05-22 04:34:00,
2013-05-21 23:40:00,58.7,56.7,29.74,WSW,249,0.0,0.0,93,0.00,,,0.54,Wunderground v.1.15,2013-05-22 04:40:00,
2013-05-21 23:54:00,58.4,56.4,29.74,WSW,249,0.0,0.0,93,0.00,,,0.54,Wunderground v.1.15,2013-05-22 04:54:00,